Time;durP1;ratioP1;P1;durP2;ratioP2;P2;SDS_P1;SDS_P2;PMS_P1;PMS_P2;Temp;Humidity;BMP_temperature;BMP_pressure;BME280_temperature;BME280_humidity;BME280_pressure;Samples;Min_cycle;Max_cycle;Signal;HPM_P1;HPM_P2
2022/07/25 00:00:55;;;;;;;3.15;2.85;;;;;;;28.06;42.79;100693.67;1730860;82;22170;-83
2022/07/25 00:03:21;;;;;;;3.20;2.65;;;;;;;28.06;42.82;100688.08;1730589;82;21002;-84
2022/07/25 00:05:48;;;;;;;3.65;3.35;;;;;;;28.06;42.86;100679.69;1731103;82;21456;-83
2022/07/25 00:08:14;;;;;;;3.77;2.95;;;;;;;28.05;42.89;100682.27;1731123;82;21038;-84
2022/07/25 00:10:41;;;;;;;4.28;3.47;;;;;;;28.06;42.89;100677.48;1730888;82;21108;-84
2022/07/25 00:13:07;;;;;;;5.10;2.98;;;;;;;28.05;42.92;100668.28;1725912;82;21562;-84
2022/07/25 00:15:33;;;;;;;3.72;3.20;;;;;;;28.05;42.95;100665.48;1703473;82;21100;-84
2022/07/25 00:18:00;;;;;;;4.97;3.27;;;;;;;28.06;42.97;100667.69;1702986;83;21119;-84
2022/07/25 00:20:26;;;;;;;3.75;2.98;;;;;;;28.06;42.98;100664.89;1703360;82;21523;-84
2022/07/25 00:22:52;;;;;;;4.70;3.35;;;;;;;28.05;43.01;100668.28;1703409;83;21135;-84
2022/07/25 00:25:19;;;;;;;4.55;3.08;;;;;;;28.05;43.02;100668.28;1703048;82;21165;-84
2022/07/25 00:27:45;;;;;;;3.52;2.85;;;;;;;28.05;43.03;100675.89;1703373;82;21087;-84
2022/07/25 00:30:12;;;;;;;3.87;3.20;;;;;;;28.06;43.04;100674.69;1703351;82;21495;-83
2022/07/25 00:32:38;;;;;;;3.58;3.15;;;;;;;28.05;43.07;100669.67;1703102;82;21071;-83
2022/07/25 00:35:05;;;;;;;4.55;2.98;;;;;;;28.05;43.10;100670.30;1726242;81;21075;-84
2022/07/25 00:37:31;;;;;;;4.85;3.45;;;;;;;28.06;43.11;100672.70;1734189;81;21045;-84
2022/07/25 00:39:58;;;;;;;3.80;3.40;;;;;;;28.06;43.14;100677.48;1734081;82;21020;-84
2022/07/25 00:42:24;;;;;;;3.37;3.08;;;;;;;28.05;43.16;100672.47;1734476;82;21491;-84
2022/07/25 00:44:51;;;;;;;4.28;3.40;;;;;;;28.05;43.18;100677.28;1734234;82;20980;-84
2022/07/25 00:47:17;;;;;;;3.83;3.12;;;;;;;28.05;43.22;100673.88;1734034;81;21015;-84
2022/07/25 00:49:44;;;;;;;4.50;3.17;;;;;;;28.05;43.23;100673.09;1734136;82;21518;-84
2022/07/25 00:52:10;;;;;;;3.37;2.87;;;;;;;28.05;43.24;100676.67;1734287;81;20961;-84
2022/07/25 00:54:36;;;;;;;3.58;3.27;;;;;;;28.05;43.29;100678.06;1734028;81;21039;-84
2022/07/25 00:57:03;;;;;;;3.95;2.98;;;;;;;28.05;43.28;100670.30;1734235;81;21075;-84
2022/07/25 00:59:35;;;;;;;3.83;3.42;;;;;;;28.05;43.29;100666.09;1734532;81;20987;-84
2022/07/25 01:02:02;;;;;;;3.72;3.20;;;;;;;28.05;43.33;100666.88;1734015;81;20928;-84
2022/07/25 01:04:28;;;;;;;4.70;3.60;;;;;;;28.04;43.33;100662.49;1734197;81;21114;-83
2022/07/25 01:06:55;;;;;;;4.03;3.30;;;;;;;28.05;43.36;100660.50;1734318;81;21620;-84
2022/07/25 01:09:21;;;;;;;4.22;3.08;;;;;;;28.04;43.36;100663.89;1733796;81;21455;-84
2022/07/25 01:11:48;;;;;;;3.80;3.25;;;;;;;28.04;43.38;100668.08;1742347;81;21114;-83
2022/07/25 01:14:14;;;;;;;5.33;3.22;;;;;;;28.04;43.38;100665.28;1734260;81;20992;-84
2022/07/25 01:16:41;;;;;;;4.75;3.42;;;;;;;28.05;43.41;100660.50;1733924;81;21367;-83
2022/07/25 01:19:07;;;;;;;5.40;3.33;;;;;;;28.05;43.42;100661.28;1734168;81;21147;-84
2022/07/25 01:21:38;;;;;;;4.00;3.30;;;;;;;28.04;43.44;100656.89;1734259;81;21004;-84
2022/07/25 01:24:05;;;;;;;4.45;3.50;;;;;;;28.05;43.46;100661.28;1733974;81;21024;-84
2022/07/25 01:26:31;;;;;;;3.90;3.50;;;;;;;28.04;43.48;100654.10;1736587;81;21842;-84
2022/07/25 01:28:58;;;;;;;4.20;3.42;;;;;;;28.05;43.48;100657.09;1739608;81;21144;-84
2022/07/25 01:31:24;;;;;;;3.62;3.17;;;;;;;28.04;43.52;100652.70;1749872;82;21028;-83
2022/07/25 01:33:51;;;;;;;3.62;3.08;;;;;;;28.05;43.49;100653.52;1754402;81;21049;-83
2022/07/25 01:36:17;;;;;;;5.15;3.83;;;;;;;28.04;43.52;100647.11;1741276;82;21057;-83
2022/07/25 01:38:49;;;;;;;3.55;3.25;;;;;;;28.04;43.53;100642.09;1730919;82;21347;-83
2022/07/25 01:41:16;;;;;;;3.30;2.95;;;;;;;28.04;43.54;100645.70;1731045;82;21076;-83
2022/07/25 01:43:42;;;;;;;4.78;3.30;;;;;;;28.04;43.54;100656.89;1731150;82;22137;-82
2022/07/25 01:46:09;;;;;;;3.67;3.33;;;;;;;28.04;43.56;100661.09;1730826;82;21085;-82
2022/07/25 01:48:35;;;;;;;3.75;3.22;;;;;;;28.04;43.58;100662.49;1731526;82;21088;-83
2022/07/25 01:51:01;;;;;;;4.37;3.12;;;;;;;28.04;43.59;100654.69;1731078;82;21550;-83
2022/07/25 01:53:28;;;;;;;3.22;2.72;;;;;;;28.04;43.60;100656.09;1730764;81;21436;-83
2022/07/25 01:55:54;;;;;;;3.45;3.15;;;;;;;28.04;43.61;100652.70;1730873;82;21092;-83
2022/07/25 01:58:21;;;;;;;3.75;3.20;;;;;;;28.04;43.63;100654.10;1714486;82;21060;-84
2022/07/25 02:00:47;;;;;;;3.60;2.80;;;;;;;28.04;43.66;100656.09;1730846;82;21402;-83
2022/07/25 02:03:29;;;;;;;4.55;3.05;;;;;;;28.04;43.66;100656.09;1726181;82;21831;-83
2022/07/25 02:06:01;;;;;;;3.65;3.30;;;;;;;28.04;43.67;100659.69;1722815;81;21041;-83
2022/07/25 02:08:28;;;;;;;4.75;3.25;;;;;;;28.04;43.68;100654.69;1699490;84;21086;-83
2022/07/25 02:10:55;;;;;;;3.85;3.42;;;;;;;28.03;43.69;100645.48;1713038;82;20998;-83
2022/07/25 02:13:22;;;;;;;4.08;3.20;;;;;;;28.03;43.71;100649.68;1712876;82;21575;-83
2022/07/25 02:15:48;;;;;;;3.70;3.20;;;;;;;28.04;43.73;100650.48;1712986;83;21741;-83
2022/07/25 02:18:14;;;;;;;3.58;3.20;;;;;;;28.04;43.74;100642.91;1713027;82;21075;-83
2022/07/25 02:20:41;;;;;;;3.75;3.22;;;;;;;28.03;43.78;100644.09;1712879;82;21483;-83
2022/07/25 02:23:07;;;;;;;4.87;3.20;;;;;;;28.04;43.80;100642.09;1713193;82;21052;-83
2022/07/25 02:25:34;;;;;;;3.72;3.15;;;;;;;28.02;43.82;100645.26;1713030;83;21020;-83
2022/07/25 02:28:00;;;;;;;4.33;3.20;;;;;;;28.03;43.82;100636.28;1712793;83;21192;-82
2022/07/25 02:30:27;;;;;;;3.62;2.87;;;;;;;28.03;43.85;100631.50;1713033;82;21507;-83
2022/07/25 02:32:53;;;;;;;2.98;2.67;;;;;;;28.03;43.86;100637.68;1713222;83;21033;-83
2022/07/25 02:35:20;;;;;;;3.40;3.10;;;;;;;28.03;43.87;100645.48;1712770;83;21614;-83
2022/07/25 02:37:46;;;;;;;4.17;2.92;;;;;;;28.04;43.90;100644.90;1712309;82;21062;-83
2022/07/25 02:40:12;;;;;;;4.28;3.27;;;;;;;28.02;43.93;100643.86;1732775;81;21285;-83
2022/07/25 02:42:39;;;;;;;3.90;2.95;;;;;;;28.03;43.93;100648.87;1757462;80;20988;-83
2022/07/25 02:45:07;;;;;;;3.17;2.87;;;;;;;28.02;43.95;100649.45;1732839;81;20965;-83
2022/07/25 02:47:33;;;;;;;4.20;2.98;;;;;;;28.02;43.95;100649.45;1732618;81;21118;-83
2022/07/25 02:49:59;;;;;;;3.72;3.20;;;;;;;28.03;43.98;100650.27;1732477;81;21075;-83
2022/07/25 02:52:26;;;;;;;4.03;3.50;;;;;;;28.03;44.01;100648.87;1732559;81;21470;-83
2022/07/25 02:54:52;;;;;;;3.87;3.40;;;;;;;28.03;44.01;100644.09;1732371;81;20996;-83
2022/07/25 02:57:19;;;;;;;4.22;3.00;;;;;;;28.04;44.04;100644.90;1732346;81;21032;-83
2022/07/25 02:59:45;;;;;;;3.87;3.47;;;;;;;28.02;44.05;100639.66;1732628;81;20981;-83
2022/07/25 03:02:12;;;;;;;4.00;2.80;;;;;;;28.03;44.07;100639.89;1732663;81;20956;-83
2022/07/25 03:04:38;;;;;;;3.52;3.10;;;;;;;28.03;44.07;100641.88;1732479;82;21969;-82
2022/07/25 03:07:05;;;;;;;3.52;3.22;;;;;;;28.03;44.09;100648.28;1732649;81;21020;-82
2022/07/25 03:09:31;;;;;;;4.20;3.40;;;;;;;28.02;44.10;100650.85;1732547;81;21664;-83
2022/07/25 03:11:58;;;;;;;3.42;3.02;;;;;;;28.03;44.11;100644.67;1732351;81;21032;-83
2022/07/25 03:14:24;;;;;;;3.67;2.83;;;;;;;28.03;44.13;100644.09;1731956;81;21056;-83
2022/07/25 03:16:51;;;;;;;3.15;2.83;;;;;;;28.03;44.15;100644.67;1713325;82;21079;-83
2022/07/25 03:19:17;;;;;;;3.30;3.00;;;;;;;28.03;44.18;100648.28;1713103;82;20998;-83
2022/07/25 03:21:44;;;;;;;3.70;3.40;;;;;;;28.03;44.19;100641.88;1713317;83;21047;-83
2022/07/25 03:24:11;;;;;;;4.50;3.10;;;;;;;28.02;44.22;100643.86;1713293;82;21522;-83
2022/07/25 03:26:37;;;;;;;3.95;3.37;;;;;;;28.02;44.23;100643.86;1713114;82;20940;-84
2022/07/25 03:29:03;;;;;;;3.50;3.00;;;;;;;28.03;44.24;100646.07;1713062;82;21105;-84
2022/07/25 03:31:30;;;;;;;3.60;3.30;;;;;;;28.02;44.24;100642.46;1713373;83;21126;-83
2022/07/25 03:33:56;;;;;;;3.58;2.92;;;;;;;28.03;44.25;100650.27;1712896;83;21059;-83
2022/07/25 03:36:23;;;;;;;4.15;3.30;;;;;;;28.02;44.27;100648.05;1729354;80;21249;-84
2022/07/25 03:38:49;;;;;;;3.58;3.22;;;;;;;28.03;44.30;100641.29;1732111;81;21030;-83
2022/07/25 03:41:15;;;;;;;4.17;3.10;;;;;;;28.02;44.31;100643.86;1731767;81;21017;-84
2022/07/25 03:43:42;;;;;;;3.33;3.02;;;;;;;28.03;44.29;100647.47;1732109;81;21117;-83
2022/07/25 03:46:08;;;;;;;3.87;3.02;;;;;;;28.02;44.31;100638.85;1732084;81;21441;-83
2022/07/25 03:48:35;;;;;;;3.58;3.08;;;;;;;28.02;44.35;100649.45;1731789;82;21046;-83
2022/07/25 03:51:01;;;;;;;4.33;2.80;;;;;;;28.02;44.35;100645.84;1739740;82;21064;-83
2022/07/25 03:53:28;;;;;;;5.25;3.45;;;;;;;28.02;44.36;100643.86;1747396;80;21181;-83
2022/07/25 03:55:54;;;;;;;4.25;3.20;;;;;;;28.02;44.38;100648.05;1747003;82;21067;-83
2022/07/25 03:58:20;;;;;;;5.10;3.08;;;;;;;28.02;44.40;100651.44;1747318;82;21055;-83
2022/07/25 04:00:47;;;;;;;3.55;3.25;;;;;;;28.02;44.42;100653.65;1760369;81;21297;-83
2022/07/25 04:03:14;;;;;;;5.22;2.98;;;;;;;28.01;44.43;100654.82;1760122;81;21118;-83
2022/07/25 04:05:41;;;;;;;3.58;3.27;;;;;;;28.02;44.43;100652.84;1760255;81;21474;-83
2022/07/25 04:08:07;;;;;;;3.70;3.27;;;;;;;28.01;44.45;100650.63;1760436;81;21310;-83
2022/07/25 04:10:40;;;;;;;3.60;3.00;;;;;;;28.01;44.46;100647.83;1760297;81;21071;-84
2022/07/25 04:13:07;;;;;;;4.25;3.35;;;;;;;28.01;44.46;100643.64;1760733;81;21062;-83
2022/07/25 04:15:33;;;;;;;3.65;3.22;;;;;;;28.01;44.49;100649.23;1760546;81;21075;-83
2022/07/25 04:18:00;;;;;;;3.58;2.90;;;;;;;28.02;44.51;100652.84;1760201;81;21731;-84
2022/07/25 04:20:26;;;;;;;3.22;2.92;;;;;;;28.02;44.51;100655.63;1760628;81;21426;-83
2022/07/25 04:22:59;;;;;;;3.92;3.35;;;;;;;28.01;44.53;100653.42;1760529;81;21070;-83
2022/07/25 04:25:25;;;;;;;4.12;3.40;;;;;;;28.01;44.55;100659.02;1760482;81;21021;-84
2022/07/25 04:27:58;;;;;;;3.50;3.20;;;;;;;28.01;44.55;100656.80;1761360;81;21022;-83
2022/07/25 04:30:24;;;;;;;3.55;3.25;;;;;;;28.01;44.58;100663.21;1723690;83;21054;-84
2022/07/25 04:32:51;;;;;;;3.65;3.35;;;;;;;28.01;44.58;100663.21;1748895;80;21305;-83
2022/07/25 04:35:17;;;;;;;3.83;3.52;;;;;;;28.01;44.59;100667.99;1750114;80;21058;-83
2022/07/25 04:37:44;;;;;;;3.20;2.90;;;;;;;28.01;44.59;100667.99;1751767;80;21023;-83
2022/07/25 04:40:16;;;;;;;3.95;3.40;;;;;;;28.01;44.63;100670.20;1751692;80;20951;-83
2022/07/25 04:42:42;;;;;;;4.40;3.30;;;;;;;28.00;44.64;100675.60;1752139;81;20939;-82
2022/07/25 04:45:10;;;;;;;5.55;3.40;;;;;;;28.01;44.65;100674.98;1753031;80;21109;-85
2022/07/25 04:47:36;;;;;;;3.30;2.95;;;;;;;28.00;44.67;100675.60;1752371;80;20972;-84
2022/07/25 04:50:03;;;;;;;4.00;3.60;;;;;;;28.00;44.67;100678.40;1752804;80;21070;-83
2022/07/25 04:52:35;;;;;;;3.65;3.27;;;;;;;28.01;44.68;100673.59;1752167;82;20999;-84
2022/07/25 04:55:02;;;;;;;3.58;3.17;;;;;;;28.01;44.71;100679.17;1751795;82;21064;-83
2022/07/25 04:57:29;;;;;;;4.40;3.30;;;;;;;28.00;44.71;100679.80;1751757;80;21039;-83
2022/07/25 04:59:55;;;;;;;3.60;3.00;;;;;;;28.01;44.72;100680.58;1751853;80;21593;-83
2022/07/25 05:02:22;;;;;;;4.58;3.67;;;;;;;28.01;44.72;100682.78;1732286;80;21616;-82
2022/07/25 05:04:48;;;;;;;3.65;3.35;;;;;;;28.00;44.81;100681.19;1722525;82;21036;-83
2022/07/25 05:07:14;;;;;;;4.00;3.60;;;;;;;27.99;44.87;100683.77;1712473;82;21071;-83
2022/07/25 05:09:41;;;;;;;4.75;3.92;;;;;;;27.97;44.96;100679.12;1747159;80;21559;-83
2022/07/25 05:12:08;;;;;;;6.03;4.20;;;;;;;27.95;45.04;100680.68;1754436;81;21052;-83
2022/07/25 05:14:34;;;;;;;7.10;4.50;;;;;;;27.92;45.21;100682.83;1751866;81;21838;-83
2022/07/25 05:17:00;;;;;;;4.67;4.17;;;;;;;27.90;45.44;100688.78;1751108;80;21102;-83
2022/07/25 05:19:27;;;;;;;6.22;4.70;;;;;;;27.86;45.64;100691.28;1749770;81;22973;-84
2022/07/25 05:21:53;;;;;;;5.17;4.62;;;;;;;27.82;45.85;100693.20;1747775;80;21056;-83
2022/07/25 05:24:21;;;;;;;5.60;4.53;;;;;;;27.79;46.10;100691.97;1750951;80;21457;-83
2022/07/25 05:26:48;;;;;;;9.45;5.10;;;;;;;27.76;46.29;100690.47;1732109;81;21062;-83
2022/07/25 05:29:15;;;;;;;10.10;4.95;;;;;;;27.73;46.43;100689.83;1725910;81;21130;-83
2022/07/25 05:31:41;;;;;;;6.50;5.08;;;;;;;27.72;46.56;100698.80;1750945;80;22028;-84
2022/07/25 05:34:08;;;;;;;6.47;4.97;;;;;;;27.69;46.71;100698.14;1745623;80;21078;-83
2022/07/25 05:36:34;;;;;;;9.95;5.22;;;;;;;27.66;46.88;100708.09;1719656;81;21056;-83
2022/07/25 05:39:01;;;;;;;5.40;4.70;;;;;;;27.66;46.96;100703.89;1722847;83;21068;-83
2022/07/25 05:41:27;;;;;;;6.33;5.67;;;;;;;27.65;47.09;100709.84;1754462;81;21058;-84
2022/07/25 05:43:53;;;;;;;8.23;5.80;;;;;;;27.62;47.26;100711.98;1757377;80;21125;-84
2022/07/25 05:46:19;;;;;;;8.48;5.47;;;;;;;27.59;47.44;100715.49;1759595;80;21078;-82
2022/07/25 05:48:46;;;;;;;6.33;5.42;;;;;;;27.57;47.57;100718.67;1759595;80;21560;-83
2022/07/25 05:51:12;;;;;;;8.25;6.25;;;;;;;27.55;47.73;100718.80;1730192;81;21078;-82
2022/07/25 05:53:39;;;;;;;8.40;6.45;;;;;;;27.52;47.96;100717.56;1759937;80;21034;-84
2022/07/25 05:56:06;;;;;;;6.28;5.67;;;;;;;27.49;48.11;100714.11;1719568;81;21033;-83
2022/07/25 05:58:32;;;;;;;7.08;6.37;;;;;;;27.44;48.30;100710.17;1733153;81;21098;-84
2022/07/25 06:00:59;;;;;;;10.15;6.67;;;;;;;27.43;48.39;100702.97;1735678;80;21457;-83
2022/07/25 06:03:25;;;;;;;6.20;5.58;;;;;;;27.43;48.51;100705.76;1760395;81;21489;-83
2022/07/25 06:05:51;;;;;;;6.28;5.60;;;;;;;27.43;48.57;100706.34;1735808;80;21074;-82
2022/07/25 06:08:18;;;;;;;7.53;5.97;;;;;;;27.43;48.63;100707.16;1698726;81;21032;-83
2022/07/25 06:10:44;;;;;;;6.92;6.22;;;;;;;27.43;48.71;100695.16;1738382;80;20931;-82
2022/07/25 06:13:11;;;;;;;6.87;6.17;;;;;;;27.45;48.79;100705.41;1758951;81;21041;-82
2022/07/25 06:15:37;;;;;;;8.68;6.20;;;;;;;27.42;48.82;100700.52;1758827;80;21005;-82
2022/07/25 06:18:23;;;;;;;6.85;5.97;;;;;;;27.41;48.77;100701.14;1761845;80;21070;-84
2022/07/25 06:20:49;;;;;;;7.05;6.10;;;;;;;27.41;48.75;100696.95;1756760;81;21792;-83
2022/07/25 06:23:17;;;;;;;6.47;5.87;;;;;;;27.41;48.64;100707.31;1755792;80;21489;-84
2022/07/25 06:25:44;;;;;;;7.22;5.58;;;;;;;27.40;48.61;100700.09;1758476;80;21042;-83
2022/07/25 06:28:12;;;;;;;6.55;5.75;;;;;;;27.40;48.54;100709.88;1753270;80;21105;-83
2022/07/25 06:30:39;;;;;;;6.28;5.67;;;;;;;27.35;48.38;100710.97;1742520;80;21560;-81
2022/07/25 06:33:05;;;;;;;7.62;5.33;;;;;;;27.34;48.24;100709.93;1756216;80;21074;-82
2022/07/25 06:35:32;;;;;;;6.00;5.35;;;;;;;27.33;48.19;100706.94;1757774;80;21627;-82
2022/07/25 06:37:59;;;;;;;6.95;5.60;;;;;;;27.31;48.09;100709.27;1757000;80;21067;-82
2022/07/25 06:40:25;;;;;;;8.20;6.00;;;;;;;27.32;48.08;100708.92;1732025;81;21584;-83
2022/07/25 06:42:52;;;;;;;7.17;5.67;;;;;;;27.33;48.10;100707.72;1735896;80;21048;-83
2022/07/25 06:45:18;;;;;;;8.05;5.92;;;;;;;27.35;48.09;100718.54;1744677;81;21302;-82
2022/07/25 06:47:45;;;;;;;6.62;4.97;;;;;;;27.35;48.00;100718.54;1751334;80;21803;-84
2022/07/25 06:50:14;;;;;;;8.50;5.85;;;;;;;27.33;47.97;100716.10;1743105;81;21129;-85
2022/07/25 06:52:41;;;;;;;6.47;5.08;;;;;;;27.32;47.86;100714.50;1753238;80;22112;-84
2022/07/25 06:55:10;;;;;;;7.97;5.20;;;;;;;27.32;47.78;100710.91;1758360;80;21062;-82
2022/07/25 06:57:37;;;;;;;6.28;5.35;;;;;;;27.31;47.71;100721.84;1756950;81;21118;-83
2022/07/25 07:00:08;;;;;;;5.62;4.90;;;;;;;27.30;47.63;100720.22;1758325;81;21073;-83
2022/07/25 07:02:54;;;;;;;5.12;4.62;;;;;;;27.29;47.59;100726.39;1758454;80;21117;-82
2022/07/25 07:05:21;;;;;;;5.90;4.83;;;;;;;27.32;47.56;100720.67;1758388;80;21078;-83
2022/07/25 07:07:48;;;;;;;6.97;4.35;;;;;;;27.31;47.43;100712.06;1759103;80;21103;-83
2022/07/25 07:10:15;;;;;;;4.92;4.42;;;;;;;27.31;47.35;100716.26;1758821;81;21542;-83
2022/07/25 07:12:42;;;;;;;5.50;4.58;;;;;;;27.33;47.25;100720.91;1727645;81;21042;-84
2022/07/25 07:15:09;;;;;;;6.35;4.58;;;;;;;27.33;47.17;100710.52;1754392;81;21039;-84
2022/07/25 07:17:38;;;;;;;5.53;4.58;;;;;;;27.35;47.03;100710.97;1758625;81;21094;-83
2022/07/25 07:20:05;;;;;;;5.70;3.95;;;;;;;27.35;46.94;100713.77;1758697;80;21105;-83
2022/07/25 07:22:34;;;;;;;5.42;3.70;;;;;;;27.38;46.79;100715.82;1759053;81;21305;-83
2022/07/25 07:25:00;;;;;;;5.03;4.22;;;;;;;27.39;46.61;100713.25;1759424;81;21031;-85
2022/07/25 07:27:26;;;;;;;8.20;4.78;;;;;;;27.40;46.36;100710.69;1755204;80;21070;-83
2022/07/25 07:29:53;;;;;;;5.65;4.05;;;;;;;27.41;46.17;100718.48;1751626;80;21026;-84
2022/07/25 07:32:19;;;;;;;6.42;4.25;;;;;;;27.40;46.14;100710.69;1757853;80;21066;-84
2022/07/25 07:34:46;;;;;;;5.97;3.90;;;;;;;27.41;46.03;100716.50;1758245;80;22079;-84
2022/07/25 07:37:18;;;;;;;9.15;4.42;;;;;;;27.43;45.96;100716.13;1725009;81;21055;-84
2022/07/25 07:39:45;;;;;;;4.50;4.00;;;;;;;27.44;45.82;100718.56;1712920;82;21052;-83
2022/07/25 07:42:11;;;;;;;7.05;4.20;;;;;;;27.44;45.68;100717.16;1712604;83;21319;-83
2022/07/25 07:44:38;;;;;;;5.75;4.12;;;;;;;27.46;45.60;100722.36;1712934;82;21543;-83
2022/07/25 07:47:07;;;;;;;6.35;4.47;;;;;;;27.49;45.59;100725.30;1713068;82;21973;-84
2022/07/25 07:49:33;;;;;;;5.60;4.28;;;;;;;27.49;45.54;100724.48;1712667;82;21040;-84
2022/07/25 07:52:00;;;;;;;6.25;4.33;;;;;;;27.51;45.41;100720.72;1712009;82;21075;-84
2022/07/25 07:57:11;;;;;;;4.30;3.90;;;;;;;27.53;45.25;100716.98;1712458;83;21075;-84
2022/07/25 07:59:38;;;;;;;9.90;5.37;;;;;;;27.54;45.13;100715.81;1713162;82;21108;-84
2022/07/25 08:02:05;;;;;;;6.20;3.92;;;;;;;27.53;45.08;100721.17;1706685;82;22104;-84
2022/07/25 08:04:31;;;;;;;4.55;3.90;;;;;;;27.53;45.05;100713.59;1710899;83;21087;-84
2022/07/25 08:06:58;;;;;;;5.10;3.85;;;;;;;27.53;44.93;100711.39;1712232;83;21082;-83
2022/07/25 08:09:27;;;;;;;5.60;4.15;;;;;;;27.55;44.91;100706.23;1723245;82;21551;-83
2022/07/25 08:11:53;;;;;;;4.65;3.77;;;;;;;27.56;44.92;100713.44;1741494;82;21546;-83
2022/07/25 08:14:20;;;;;;;5.08;4.45;;;;;;;27.58;44.87;100709.70;1739636;82;21060;-83
2022/07/25 08:16:51;;;;;;;6.75;4.03;;;;;;;27.59;44.75;100718.28;1711647;82;21151;-83
2022/07/25 08:19:17;;;;;;;5.20;4.08;;;;;;;27.61;44.60;100713.16;1742327;80;21019;-83
2022/07/25 08:21:43;;;;;;;4.45;3.85;;;;;;;27.61;44.51;100706.17;1745246;80;21494;-83
2022/07/25 08:24:10;;;;;;;5.87;3.77;;;;;;;27.62;44.41;100714.78;1720988;81;21076;-83
2022/07/25 08:26:39;;;;;;;8.73;3.70;;;;;;;27.64;44.27;100716.60;1703178;82;21088;-84
2022/07/25 08:29:06;;;;;;;8.38;3.80;;;;;;;27.63;44.13;100710.20;1732363;81;21111;-82
2022/07/25 08:31:33;;;;;;;6.65;3.62;;;;;;;27.65;43.98;100719.63;1730567;82;21084;-83
2022/07/25 08:34:00;;;;;;;5.28;3.42;;;;;;;27.64;43.89;100714.62;1714606;82;21128;-83
2022/07/25 08:36:27;;;;;;;6.12;3.27;;;;;;;27.66;43.82;100713.68;1694691;83;21219;-82
2022/07/25 08:38:56;;;;;;;4.28;3.40;;;;;;;27.68;43.69;100709.09;1757454;80;21048;-84
2022/07/25 08:41:29;;;;;;;6.75;3.50;;;;;;;27.68;43.59;100714.10;1756558;80;21051;-83
2022/07/25 08:43:57;;;;;;;3.42;3.12;;;;;;;27.68;43.43;100705.72;1756680;81;21091;-83
2022/07/25 08:46:24;;;;;;;6.83;3.75;;;;;;;27.69;43.30;100703.73;1755232;81;21563;-83
2022/07/25 08:48:52;;;;;;;4.40;3.17;;;;;;;27.69;43.15;100696.16;1757316;80;21145;-83
2022/07/25 08:51:21;;;;;;;4.92;3.67;;;;;;;27.70;43.06;100693.59;1756848;80;21037;-83
2022/07/25 08:53:51;;;;;;;4.83;3.15;;;;;;;27.70;43.08;100689.41;1755940;80;21106;-83
2022/07/25 08:56:17;;;;;;;5.45;3.40;;;;;;;27.73;43.00;100700.42;1757816;80;21073;-83
2022/07/25 08:58:44;;;;;;;4.78;3.45;;;;;;;27.74;42.87;100693.66;1756573;81;21079;-84
2022/07/25 09:01:11;;;;;;;6.45;3.20;;;;;;;27.74;42.75;100697.85;1757623;80;21145;-83
2022/07/25 09:03:39;;;;;;;5.72;3.37;;;;;;;27.76;42.52;100691.29;1756083;80;21093;-85
2022/07/25 09:06:19;;;;;;;3.42;2.72;;;;;;;27.76;42.59;100696.88;1756284;80;21118;-84
2022/07/25 09:08:56;;;;;;;4.20;3.30;;;;;;;27.78;42.50;100697.92;1727507;81;21176;-82
2022/07/25 09:11:33;;;;;;;4.45;3.45;;;;;;;27.79;42.42;100703.16;1727381;83;21152;-83
2022/07/25 09:14:02;;;;;;;4.05;3.25;;;;;;;27.80;42.34;100706.73;1698203;83;21878;-80
2022/07/25 09:16:33;;;;;;;3.22;2.92;;;;;;;27.80;42.28;100705.33;1727088;83;21041;-82
2022/07/25 09:19:18;;;;;;;6.95;3.60;;;;;;;27.80;42.23;100706.14;1735836;80;21106;-82
2022/07/25 09:21:47;;;;;;;4.03;3.37;;;;;;;27.80;42.14;100706.14;1693893;83;21073;-81
2022/07/25 09:24:17;;;;;;;4.40;3.33;;;;;;;27.81;42.02;100702.17;1731278;81;21155;-82
2022/07/25 09:26:50;;;;;;;4.58;3.58;;;;;;;27.81;41.94;100697.17;1755001;80;21740;-82
2022/07/25 09:29:22;;;;;;;4.45;3.37;;;;;;;27.81;41.77;100702.77;1744293;80;21117;-82
2022/07/25 09:31:48;;;;;;;4.35;3.40;;;;;;;27.82;41.82;100702.41;1725677;81;21628;-81
2022/07/25 09:34:36;;;;;;;3.42;3.12;;;;;;;27.84;41.67;100696.45;1757019;80;21426;-81
2022/07/25 09:37:06;;;;;;;6.08;3.62;;;;;;;27.83;41.71;100700.42;1756620;80;21059;-81
2022/07/25 09:39:39;;;;;;;4.62;3.50;;;;;;;27.86;41.64;100698.27;1767726;80;21303;-81
2022/07/25 09:42:36;;;;;;;3.92;3.52;;;;;;;27.86;41.58;100696.29;1760472;80;21143;-82
2022/07/25 09:45:13;;;;;;;4.10;3.40;;;;;;;27.87;41.60;100702.11;1752835;80;21326;-81
2022/07/25 09:47:59;;;;;;;6.65;3.90;;;;;;;27.88;41.48;100700.91;1755963;80;21049;-81
2022/07/25 09:50:27;;;;;;;4.53;3.60;;;;;;;27.89;41.39;100698.34;1750557;79;21035;-81
2022/07/25 09:52:55;;;;;;;5.20;3.17;;;;;;;27.90;41.30;100701.95;1758147;80;21105;-80
2022/07/25 09:55:22;;;;;;;4.75;3.45;;;;;;;27.91;41.25;100698.80;1747346;80;21070;-80
2022/07/25 09:57:51;;;;;;;4.53;3.17;;;;;;;27.92;41.19;100698.20;1757427;80;21065;-80
2022/07/25 10:00:23;;;;;;;4.15;3.60;;;;;;;27.94;41.19;100695.83;1756901;80;21129;-81
2022/07/25 10:03:10;;;;;;;4.90;3.55;;;;;;;27.94;41.14;100684.65;1732211;80;21082;-81
2022/07/25 10:06:04;;;;;;;3.87;3.35;;;;;;;27.94;41.09;100687.45;1756631;80;21169;-80
2022/07/25 10:08:36;;;;;;;3.45;3.15;;;;;;;27.96;41.06;100683.70;1749907;80;21069;-80
2022/07/25 10:11:05;;;;;;;4.62;3.58;;;;;;;27.97;41.05;100685.30;1756781;80;20989;-80
2022/07/25 10:13:33;;;;;;;4.78;3.40;;;;;;;27.98;40.98;100680.74;1715318;82;21156;-81
2022/07/25 10:16:00;;;;;;;4.20;3.52;;;;;;;27.99;40.86;100677.36;1737620;81;21378;-79
2022/07/25 10:18:31;;;;;;;5.40;3.50;;;;;;;27.99;40.82;100665.59;1708319;82;21130;-80
2022/07/25 10:21:11;;;;;;;5.12;3.50;;;;;;;28.00;40.73;100661.62;1702110;82;21501;-79
2022/07/25 10:23:37;;;;;;;4.75;3.90;;;;;;;28.00;40.81;100663.02;1691901;84;21646;-80
2022/07/25 10:26:19;;;;;;;5.78;3.40;;;;;;;28.01;40.75;100659.02;1702595;82;21068;-80
2022/07/25 10:28:47;;;;;;;4.53;3.77;;;;;;;28.02;40.76;100655.05;1700700;82;21003;-81
2022/07/25 10:31:23;;;;;;;4.30;3.60;;;;;;;28.03;40.67;100644.09;1749911;81;21127;-79
2022/07/25 10:33:53;;;;;;;5.05;3.72;;;;;;;28.03;40.70;100653.87;1702269;82;21111;-81
2022/07/25 10:36:19;;;;;;;4.87;3.80;;;;;;;28.04;40.69;100649.91;1745916;80;21524;-83
2022/07/25 10:38:46;;;;;;;5.60;3.52;;;;;;;28.05;40.66;100650.09;1749020;80;21030;-82
2022/07/25 10:41:14;;;;;;;5.03;3.47;;;;;;;28.07;40.63;100649.73;1748322;82;21025;-81
2022/07/25 10:43:44;;;;;;;5.65;3.87;;;;;;;28.09;40.66;100648.20;1748506;81;21324;-80
2022/07/25 10:46:12;;;;;;;4.08;3.67;;;;;;;28.10;40.61;100649.83;1749471;81;21074;-81
2022/07/25 10:48:39;;;;;;;4.20;3.40;;;;;;;28.11;40.51;100643.06;1749554;80;21061;-81
2022/07/25 10:51:13;;;;;;;5.83;3.50;;;;;;;28.12;40.51;100643.87;1749906;81;21109;-80
2022/07/25 10:53:47;;;;;;;5.70;3.27;;;;;;;28.12;40.44;100634.89;1747051;80;21002;-81
2022/07/25 10:56:21;;;;;;;4.50;3.40;;;;;;;28.13;40.43;100637.11;1749929;80;21210;-81
2022/07/25 10:59:01;;;;;;;4.10;3.55;;;;;;;28.14;40.37;100633.91;1749579;80;21035;-80
2022/07/25 11:01:33;;;;;;;4.53;3.50;;;;;;;28.15;40.30;100627.14;1748532;80;21051;-81
2022/07/25 11:04:02;;;;;;;7.00;3.85;;;;;;;28.18;40.26;100625.58;1750196;80;21026;-81
2022/07/25 11:06:37;;;;;;;6.40;3.60;;;;;;;28.21;40.18;100617.05;1749956;80;21069;-82
2022/07/25 11:09:14;;;;;;;5.53;3.55;;;;;;;28.26;40.10;100618.95;1745914;80;21159;-81
2022/07/25 11:11:47;;;;;;;4.12;3.52;;;;;;;28.26;40.08;100620.34;1748842;80;21101;-82
2022/07/25 11:14:36;;;;;;;4.30;3.45;;;;;;;28.26;40.08;100614.75;1749306;80;21040;-81
2022/07/25 11:17:18;;;;;;;6.62;3.80;;;;;;;28.26;40.09;100611.95;1749613;80;21062;-81
2022/07/25 11:20:05;;;;;;;4.17;3.25;;;;;;;28.26;40.11;100606.36;1748825;81;21052;-82
2022/07/25 11:22:34;;;;;;;5.95;4.03;;;;;;;28.27;40.06;100609.34;1749732;82;21117;-81
2022/07/25 11:25:01;;;;;;;3.65;3.25;;;;;;;28.27;39.98;100607.14;1749485;81;21083;-80
2022/07/25 11:27:31;;;;;;;5.62;4.08;;;;;;;28.28;39.86;100594.19;1749989;80;21052;-81
2022/07/25 11:30:13;;;;;;;7.17;4.15;;;;;;;28.30;39.82;100593.23;1749614;80;21066;-81
2022/07/25 11:32:46;;;;;;;5.72;3.85;;;;;;;28.31;39.82;100596.81;1744799;80;21054;-81